sensor_id;sensor_type;location;lat;lon;timestamp;P1;durP1;ratioP1;P2;durP2;ratioP2
24102;SDS011;12278;53.058;9.028;2024-01-30T00:01:11;11.53;;;7.87;;
24102;SDS011;12278;53.058;9.028;2024-01-30T00:05:12;10.47;;;8.10;;
24102;SDS011;12278;53.058;9.028;2024-01-30T00:09:13;9.07;;;8.13;;
24102;SDS011;12278;53.058;9.028;2024-01-30T00:13:14;8.33;;;7.53;;
24102;SDS011;12278;53.058;9.028;2024-01-30T00:17:17;11.03;;;7.73;;
24102;SDS011;12278;53.058;9.028;2024-01-30T00:21:19;10.87;;;7.60;;
24102;SDS011;12278;53.058;9.028;2024-01-30T00:25:21;10.43;;;7.80;;
24102;SDS011;12278;53.058;9.028;2024-01-30T00:29:21;11.43;;;8.17;;
24102;SDS011;12278;53.058;9.028;2024-01-30T00:33:22;8.70;;;7.80;;
24102;SDS011;12278;53.058;9.028;2024-01-30T00:37:23;9.63;;;7.23;;
24102;SDS011;12278;53.058;9.028;2024-01-30T00:41:24;9.97;;;8.10;;
24102;SDS011;12278;53.058;9.028;2024-01-30T00:45:24;9.80;;;7.20;;
24102;SDS011;12278;53.058;9.028;2024-01-30T00:49:25;10.87;;;8.27;;
24102;SDS011;12278;53.058;9.028;2024-01-30T00:53:26;9.67;;;8.47;;
24102;SDS011;12278;53.058;9.028;2024-01-30T00:57:26;11.43;;;7.63;;
24102;SDS011;12278;53.058;9.028;2024-01-30T01:01:27;9.33;;;7.57;;
24102;SDS011;12278;53.058;9.028;2024-01-30T01:05:28;9.10;;;7.73;;
24102;SDS011;12278;53.058;9.028;2024-01-30T01:09:28;10.83;;;7.70;;
24102;SDS011;12278;53.058;9.028;2024-01-30T01:13:29;10.10;;;7.73;;
24102;SDS011;12278;53.058;9.028;2024-01-30T01:17:29;13.03;;;8.87;;
24102;SDS011;12278;53.058;9.028;2024-01-30T01:21:30;16.83;;;7.73;;
24102;SDS011;12278;53.058;9.028;2024-01-30T01:25:31;12.40;;;8.27;;
24102;SDS011;12278;53.058;9.028;2024-01-30T01:29:31;10.60;;;8.20;;
24102;SDS011;12278;53.058;9.028;2024-01-30T01:33:32;11.50;;;8.43;;
24102;SDS011;12278;53.058;9.028;2024-01-30T01:37:33;9.57;;;7.87;;
24102;SDS011;12278;53.058;9.028;2024-01-30T01:41:34;9.57;;;7.67;;
24102;SDS011;12278;53.058;9.028;2024-01-30T01:45:34;9.90;;;7.37;;
24102;SDS011;12278;53.058;9.028;2024-01-30T01:49:35;8.73;;;7.83;;
24102;SDS011;12278;53.058;9.028;2024-01-30T01:53:35;10.20;;;7.97;;
24102;SDS011;12278;53.058;9.028;2024-01-30T01:57:36;9.57;;;8.37;;
24102;SDS011;12278;53.058;9.028;2024-01-30T02:01:37;8.83;;;7.67;;
24102;SDS011;12278;53.058;9.028;2024-01-30T02:05:38;10.43;;;8.33;;
24102;SDS011;12278;53.058;9.028;2024-01-30T02:09:41;8.50;;;7.60;;
24102;SDS011;12278;53.058;9.028;2024-01-30T02:13:41;11.07;;;8.93;;
24102;SDS011;12278;53.058;9.028;2024-01-30T02:17:42;11.70;;;8.20;;
24102;SDS011;12278;53.058;9.028;2024-01-30T02:21:43;11.90;;;8.13;;
24102;SDS011;12278;53.058;9.028;2024-01-30T02:25:45;10.20;;;8.47;;
24102;SDS011;12278;53.058;9.028;2024-01-30T02:29:47;11.00;;;8.10;;
24102;SDS011;12278;53.058;9.028;2024-01-30T02:33:47;11.53;;;8.90;;
24102;SDS011;12278;53.058;9.028;2024-01-30T02:37:48;11.63;;;8.43;;
24102;SDS011;12278;53.058;9.028;2024-01-30T02:41:48;11.87;;;8.77;;
24102;SDS011;12278;53.058;9.028;2024-01-30T02:45:49;14.00;;;9.13;;
24102;SDS011;12278;53.058;9.028;2024-01-30T02:49:50;11.77;;;8.47;;
24102;SDS011;12278;53.058;9.028;2024-01-30T02:53:50;11.23;;;8.63;;
24102;SDS011;12278;53.058;9.028;2024-01-30T02:57:51;10.77;;;9.27;;
24102;SDS011;12278;53.058;9.028;2024-01-30T03:01:51;10.93;;;8.40;;
24102;SDS011;12278;53.058;9.028;2024-01-30T03:05:52;12.13;;;9.80;;
24102;SDS011;12278;53.058;9.028;2024-01-30T03:09:53;12.87;;;10.43;;
24102;SDS011;12278;53.058;9.028;2024-01-30T03:13:55;9.57;;;8.53;;
24102;SDS011;12278;53.058;9.028;2024-01-30T03:17:56;10.80;;;8.73;;
24102;SDS011;12278;53.058;9.028;2024-01-30T03:21:56;12.73;;;9.47;;
24102;SDS011;12278;53.058;9.028;2024-01-30T03:25:57;10.90;;;8.83;;
24102;SDS011;12278;53.058;9.028;2024-01-30T03:29:58;11.27;;;8.50;;
24102;SDS011;12278;53.058;9.028;2024-01-30T03:33:58;10.00;;;8.93;;
24102;SDS011;12278;53.058;9.028;2024-01-30T03:37:59;12.40;;;8.80;;
24102;SDS011;12278;53.058;9.028;2024-01-30T03:41:59;10.87;;;8.97;;
24102;SDS011;12278;53.058;9.028;2024-01-30T03:46:01;12.83;;;9.80;;
24102;SDS011;12278;53.058;9.028;2024-01-30T03:50:02;13.43;;;9.40;;
24102;SDS011;12278;53.058;9.028;2024-01-30T03:54:04;10.03;;;8.90;;
24102;SDS011;12278;53.058;9.028;2024-01-30T03:58:05;12.00;;;9.83;;
24102;SDS011;12278;53.058;9.028;2024-01-30T04:02:06;11.87;;;9.83;;
24102;SDS011;12278;53.058;9.028;2024-01-30T04:06:06;13.10;;;9.33;;
24102;SDS011;12278;53.058;9.028;2024-01-30T04:10:08;12.20;;;9.67;;
24102;SDS011;12278;53.058;9.028;2024-01-30T04:14:10;12.90;;;9.33;;
24102;SDS011;12278;53.058;9.028;2024-01-30T04:18:10;15.87;;;9.30;;
24102;SDS011;12278;53.058;9.028;2024-01-30T04:22:11;14.27;;;9.47;;
24102;SDS011;12278;53.058;9.028;2024-01-30T04:26:12;14.17;;;9.83;;
24102;SDS011;12278;53.058;9.028;2024-01-30T04:30:12;10.77;;;9.63;;
24102;SDS011;12278;53.058;9.028;2024-01-30T04:34:13;13.90;;;9.43;;
24102;SDS011;12278;53.058;9.028;2024-01-30T04:38:14;14.50;;;9.83;;
24102;SDS011;12278;53.058;9.028;2024-01-30T04:42:14;12.80;;;10.10;;
24102;SDS011;12278;53.058;9.028;2024-01-30T04:46:15;11.40;;;10.03;;
24102;SDS011;12278;53.058;9.028;2024-01-30T04:50:15;15.43;;;10.67;;
24102;SDS011;12278;53.058;9.028;2024-01-30T04:54:16;13.43;;;10.20;;
24102;SDS011;12278;53.058;9.028;2024-01-30T04:58:17;13.37;;;10.70;;
24102;SDS011;12278;53.058;9.028;2024-01-30T05:02:18;12.10;;;9.17;;
24102;SDS011;12278;53.058;9.028;2024-01-30T05:06:25;12.27;;;10.60;;
24102;SDS011;12278;53.058;9.028;2024-01-30T05:10:26;12.77;;;9.70;;
24102;SDS011;12278;53.058;9.028;2024-01-30T05:14:28;12.17;;;9.90;;
24102;SDS011;12278;53.058;9.028;2024-01-30T05:18:29;13.00;;;8.93;;
24102;SDS011;12278;53.058;9.028;2024-01-30T05:22:29;14.83;;;11.70;;
24102;SDS011;12278;53.058;9.028;2024-01-30T05:26:30;13.53;;;10.00;;
24102;SDS011;12278;53.058;9.028;2024-01-30T05:30:31;14.47;;;10.10;;
24102;SDS011;12278;53.058;9.028;2024-01-30T05:34:31;11.73;;;9.47;;
24102;SDS011;12278;53.058;9.028;2024-01-30T05:38:32;15.33;;;9.37;;
24102;SDS011;12278;53.058;9.028;2024-01-30T05:42:33;12.57;;;9.60;;
24102;SDS011;12278;53.058;9.028;2024-01-30T05:46:35;10.93;;;9.37;;
24102;SDS011;12278;53.058;9.028;2024-01-30T05:50:35;13.20;;;10.07;;
24102;SDS011;12278;53.058;9.028;2024-01-30T05:54:36;12.33;;;10.00;;
24102;SDS011;12278;53.058;9.028;2024-01-30T05:58:37;14.00;;;9.87;;
24102;SDS011;12278;53.058;9.028;2024-01-30T06:02:37;12.00;;;10.10;;
24102;SDS011;12278;53.058;9.028;2024-01-30T06:06:38;14.70;;;9.70;;
24102;SDS011;12278;53.058;9.028;2024-01-30T06:10:39;12.37;;;9.83;;
24102;SDS011;12278;53.058;9.028;2024-01-30T06:14:40;14.77;;;11.10;;
24102;SDS011;12278;53.058;9.028;2024-01-30T06:18:42;13.67;;;11.43;;
24102;SDS011;12278;53.058;9.028;2024-01-30T06:22:42;14.17;;;11.03;;
24102;SDS011;12278;53.058;9.028;2024-01-30T06:26:43;20.17;;;12.40;;
24102;SDS011;12278;53.058;9.028;2024-01-30T06:30:44;16.80;;;12.43;;
24102;SDS011;12278;53.058;9.028;2024-01-30T06:34:44;16.30;;;11.47;;
24102;SDS011;12278;53.058;9.028;2024-01-30T06:38:45;15.67;;;12.20;;
24102;SDS011;12278;53.058;9.028;2024-01-30T06:42:46;17.20;;;12.33;;
24102;SDS011;12278;53.058;9.028;2024-01-30T06:46:46;14.03;;;10.37;;
24102;SDS011;12278;53.058;9.028;2024-01-30T06:50:47;14.97;;;10.23;;
24102;SDS011;12278;53.058;9.028;2024-01-30T06:54:49;14.90;;;11.70;;
24102;SDS011;12278;53.058;9.028;2024-01-30T06:58:50;14.20;;;10.70;;
24102;SDS011;12278;53.058;9.028;2024-01-30T07:02:50;18.07;;;10.97;;
24102;SDS011;12278;53.058;9.028;2024-01-30T07:06:51;14.63;;;10.53;;
24102;SDS011;12278;53.058;9.028;2024-01-30T07:10:53;13.07;;;10.07;;
24102;SDS011;12278;53.058;9.028;2024-01-30T07:14:55;21.00;;;11.07;;
24102;SDS011;12278;53.058;9.028;2024-01-30T07:18:56;16.57;;;10.67;;
24102;SDS011;12278;53.058;9.028;2024-01-30T07:23:00;15.00;;;10.83;;
24102;SDS011;12278;53.058;9.028;2024-01-30T07:27:01;15.30;;;10.67;;
24102;SDS011;12278;53.058;9.028;2024-01-30T07:31:01;15.50;;;11.00;;
24102;SDS011;12278;53.058;9.028;2024-01-30T07:35:03;15.00;;;11.33;;
24102;SDS011;12278;53.058;9.028;2024-01-30T07:39:04;16.73;;;11.57;;
24102;SDS011;12278;53.058;9.028;2024-01-30T07:43:05;15.43;;;10.97;;
24102;SDS011;12278;53.058;9.028;2024-01-30T07:47:05;13.13;;;9.70;;
24102;SDS011;12278;53.058;9.028;2024-01-30T07:51:06;14.27;;;10.60;;
24102;SDS011;12278;53.058;9.028;2024-01-30T07:55:07;17.53;;;11.50;;
24102;SDS011;12278;53.058;9.028;2024-01-30T07:59:11;13.60;;;10.13;;
24102;SDS011;12278;53.058;9.028;2024-01-30T08:03:12;13.57;;;10.33;;
24102;SDS011;12278;53.058;9.028;2024-01-30T08:07:12;13.97;;;10.50;;
24102;SDS011;12278;53.058;9.028;2024-01-30T08:11:13;13.80;;;9.73;;
24102;SDS011;12278;53.058;9.028;2024-01-30T08:15:14;14.10;;;10.97;;
24102;SDS011;12278;53.058;9.028;2024-01-30T08:19:14;18.10;;;10.87;;
24102;SDS011;12278;53.058;9.028;2024-01-30T08:23:15;12.87;;;10.53;;
24102;SDS011;12278;53.058;9.028;2024-01-30T08:27:16;17.00;;;11.07;;
24102;SDS011;12278;53.058;9.028;2024-01-30T08:31:17;16.57;;;11.67;;
24102;SDS011;12278;53.058;9.028;2024-01-30T08:35:17;13.00;;;9.57;;
24102;SDS011;12278;53.058;9.028;2024-01-30T08:39:18;14.27;;;10.40;;
24102;SDS011;12278;53.058;9.028;2024-01-30T08:43:19;11.77;;;9.30;;
24102;SDS011;12278;53.058;9.028;2024-01-30T08:47:19;14.43;;;9.93;;
24102;SDS011;12278;53.058;9.028;2024-01-30T08:51:20;15.43;;;10.97;;
24102;SDS011;12278;53.058;9.028;2024-01-30T08:55:21;15.47;;;10.03;;
24102;SDS011;12278;53.058;9.028;2024-01-30T08:59:21;13.87;;;10.73;;
24102;SDS011;12278;53.058;9.028;2024-01-30T09:03:22;12.00;;;9.67;;
24102;SDS011;12278;53.058;9.028;2024-01-30T09:07:22;14.30;;;9.83;;
24102;SDS011;12278;53.058;9.028;2024-01-30T09:11:23;17.00;;;9.98;;
24102;SDS011;12278;53.058;9.028;2024-01-30T09:15:24;11.13;;;8.50;;
24102;SDS011;12278;53.058;9.028;2024-01-30T09:19:24;12.63;;;9.27;;
24102;SDS011;12278;53.058;9.028;2024-01-30T09:23:26;11.95;;;9.73;;
24102;SDS011;12278;53.058;9.028;2024-01-30T09:27:28;14.52;;;9.25;;
24102;SDS011;12278;53.058;9.028;2024-01-30T09:31:28;14.80;;;9.18;;
24102;SDS011;12278;53.058;9.028;2024-01-30T09:35:29;11.65;;;9.48;;
24102;SDS011;12278;53.058;9.028;2024-01-30T09:39:30;11.93;;;9.52;;
24102;SDS011;12278;53.058;9.028;2024-01-30T09:43:32;13.30;;;9.45;;
24102;SDS011;12278;53.058;9.028;2024-01-30T09:47:41;11.02;;;7.90;;
24102;SDS011;12278;53.058;9.028;2024-01-30T09:51:42;11.52;;;8.98;;
24102;SDS011;12278;53.058;9.028;2024-01-30T09:55:44;11.50;;;8.57;;
24102;SDS011;12278;53.058;9.028;2024-01-30T09:59:47;10.27;;;8.23;;
24102;SDS011;12278;53.058;9.028;2024-01-30T10:03:49;12.75;;;8.45;;
24102;SDS011;12278;53.058;9.028;2024-01-30T10:07:52;13.95;;;8.75;;
24102;SDS011;12278;53.058;9.028;2024-01-30T10:11:54;13.65;;;9.73;;
24102;SDS011;12278;53.058;9.028;2024-01-30T10:15:55;11.88;;;8.70;;
24102;SDS011;12278;53.058;9.028;2024-01-30T10:19:56;14.82;;;9.27;;
24102;SDS011;12278;53.058;9.028;2024-01-30T10:23:57;10.65;;;8.18;;
24102;SDS011;12278;53.058;9.028;2024-01-30T10:27:58;12.63;;;8.57;;
24102;SDS011;12278;53.058;9.028;2024-01-30T10:32:00;12.80;;;8.20;;
24102;SDS011;12278;53.058;9.028;2024-01-30T10:36:02;10.02;;;8.35;;
24102;SDS011;12278;53.058;9.028;2024-01-30T10:40:05;10.98;;;8.55;;
24102;SDS011;12278;53.058;9.028;2024-01-30T10:44:10;12.55;;;8.75;;
24102;SDS011;12278;53.058;9.028;2024-01-30T10:48:12;13.52;;;8.55;;
24102;SDS011;12278;53.058;9.028;2024-01-30T10:52:13;10.93;;;8.30;;
24102;SDS011;12278;53.058;9.028;2024-01-30T10:56:16;12.98;;;9.45;;
24102;SDS011;12278;53.058;9.028;2024-01-30T11:00:20;12.77;;;8.35;;
24102;SDS011;12278;53.058;9.028;2024-01-30T11:04:24;12.35;;;9.27;;
24102;SDS011;12278;53.058;9.028;2024-01-30T11:08:25;10.88;;;8.13;;
24102;SDS011;12278;53.058;9.028;2024-01-30T11:12:28;10.93;;;8.48;;
24102;SDS011;12278;53.058;9.028;2024-01-30T11:16:31;11.23;;;7.47;;
24102;SDS011;12278;53.058;9.028;2024-01-30T11:20:32;8.95;;;6.95;;
24102;SDS011;12278;53.058;9.028;2024-01-30T11:24:39;15.35;;;8.80;;
24102;SDS011;12278;53.058;9.028;2024-01-30T11:28:42;12.55;;;7.70;;
24102;SDS011;12278;53.058;9.028;2024-01-30T11:37:06;11.63;;;7.90;;
24102;SDS011;12278;53.058;9.028;2024-01-30T11:41:12;9.52;;;7.18;;
24102;SDS011;12278;53.058;9.028;2024-01-30T11:45:14;11.40;;;7.10;;
24102;SDS011;12278;53.058;9.028;2024-01-30T11:49:15;9.10;;;7.70;;
24102;SDS011;12278;53.058;9.028;2024-01-30T11:53:17;13.88;;;7.60;;
24102;SDS011;12278;53.058;9.028;2024-01-30T11:57:18;9.38;;;7.07;;
24102;SDS011;12278;53.058;9.028;2024-01-30T12:01:18;11.30;;;8.43;;
24102;SDS011;12278;53.058;9.028;2024-01-30T12:05:19;11.90;;;8.05;;
24102;SDS011;12278;53.058;9.028;2024-01-30T12:09:20;8.50;;;6.95;;
24102;SDS011;12278;53.058;9.028;2024-01-30T12:13:21;9.10;;;7.13;;
24102;SDS011;12278;53.058;9.028;2024-01-30T12:21:30;11.80;;;7.45;;
24102;SDS011;12278;53.058;9.028;2024-01-30T12:25:31;9.02;;;6.88;;
24102;SDS011;12278;53.058;9.028;2024-01-30T12:29:32;11.10;;;7.28;;
24102;SDS011;12278;53.058;9.028;2024-01-30T12:33:33;10.93;;;6.75;;
24102;SDS011;12278;53.058;9.028;2024-01-30T12:37:36;9.50;;;7.80;;
24102;SDS011;12278;53.058;9.028;2024-01-30T12:41:36;10.03;;;7.57;;
24102;SDS011;12278;53.058;9.028;2024-01-30T12:45:37;9.27;;;7.05;;
24102;SDS011;12278;53.058;9.028;2024-01-30T12:49:38;11.10;;;7.78;;
24102;SDS011;12278;53.058;9.028;2024-01-30T12:53:38;9.00;;;7.07;;
24102;SDS011;12278;53.058;9.028;2024-01-30T12:57:39;11.82;;;7.10;;
24102;SDS011;12278;53.058;9.028;2024-01-30T13:01:40;14.23;;;7.45;;
24102;SDS011;12278;53.058;9.028;2024-01-30T13:05:40;9.25;;;6.95;;
24102;SDS011;12278;53.058;9.028;2024-01-30T13:17:42;9.98;;;7.05;;
24102;SDS011;12278;53.058;9.028;2024-01-30T13:21:44;9.38;;;7.28;;
24102;SDS011;12278;53.058;9.028;2024-01-30T13:25:45;9.77;;;7.32;;
24102;SDS011;12278;53.058;9.028;2024-01-30T13:29:45;8.55;;;6.50;;
24102;SDS011;12278;53.058;9.028;2024-01-30T13:33:46;9.38;;;6.07;;
24102;SDS011;12278;53.058;9.028;2024-01-30T13:37:46;11.27;;;7.38;;
24102;SDS011;12278;53.058;9.028;2024-01-30T13:41:48;12.48;;;7.95;;
24102;SDS011;12278;53.058;9.028;2024-01-30T13:45:50;9.77;;;7.30;;
24102;SDS011;12278;53.058;9.028;2024-01-30T13:49:50;13.25;;;7.85;;
24102;SDS011;12278;53.058;9.028;2024-01-30T13:53:52;13.07;;;7.93;;
24102;SDS011;12278;53.058;9.028;2024-01-30T13:57:53;9.73;;;7.22;;
24102;SDS011;12278;53.058;9.028;2024-01-30T14:05:56;13.80;;;6.72;;
24102;SDS011;12278;53.058;9.028;2024-01-30T14:09:56;9.00;;;7.05;;
24102;SDS011;12278;53.058;9.028;2024-01-30T14:13:57;9.55;;;7.45;;
24102;SDS011;12278;53.058;9.028;2024-01-30T14:17:58;10.45;;;7.38;;
24102;SDS011;12278;53.058;9.028;2024-01-30T14:21:59;12.90;;;8.32;;
24102;SDS011;12278;53.058;9.028;2024-01-30T14:25:59;12.02;;;6.95;;
24102;SDS011;12278;53.058;9.028;2024-01-30T14:30:00;8.20;;;6.55;;
24102;SDS011;12278;53.058;9.028;2024-01-30T14:34:00;9.50;;;7.20;;
24102;SDS011;12278;53.058;9.028;2024-01-30T14:38:01;9.13;;;6.75;;
24102;SDS011;12278;53.058;9.028;2024-01-30T14:42:04;11.15;;;6.50;;
24102;SDS011;12278;53.058;9.028;2024-01-30T14:46:05;11.98;;;7.43;;
24102;SDS011;12278;53.058;9.028;2024-01-30T14:50:07;8.73;;;6.38;;
24102;SDS011;12278;53.058;9.028;2024-01-30T14:54:07;10.13;;;7.18;;
24102;SDS011;12278;53.058;9.028;2024-01-30T14:58:08;8.85;;;7.13;;
24102;SDS011;12278;53.058;9.028;2024-01-30T15:02:09;9.18;;;6.45;;
24102;SDS011;12278;53.058;9.028;2024-01-30T15:06:11;9.10;;;6.45;;
24102;SDS011;12278;53.058;9.028;2024-01-30T15:10:12;10.63;;;6.05;;
24102;SDS011;12278;53.058;9.028;2024-01-30T15:14:14;8.13;;;7.00;;
24102;SDS011;12278;53.058;9.028;2024-01-30T15:18:15;10.00;;;6.70;;
24102;SDS011;12278;53.058;9.028;2024-01-30T15:22:15;8.38;;;6.25;;
24102;SDS011;12278;53.058;9.028;2024-01-30T15:26:16;9.35;;;6.43;;
24102;SDS011;12278;53.058;9.028;2024-01-30T15:30:16;9.63;;;6.00;;
24102;SDS011;12278;53.058;9.028;2024-01-30T15:34:19;10.70;;;7.13;;
24102;SDS011;12278;53.058;9.028;2024-01-30T15:38:20;12.23;;;6.22;;
24102;SDS011;12278;53.058;9.028;2024-01-30T15:42:21;7.63;;;5.35;;
24102;SDS011;12278;53.058;9.028;2024-01-30T15:46:21;7.05;;;6.35;;
24102;SDS011;12278;53.058;9.028;2024-01-30T15:50:22;9.25;;;6.60;;
24102;SDS011;12278;53.058;9.028;2024-01-30T15:54:23;10.93;;;6.90;;
24102;SDS011;12278;53.058;9.028;2024-01-30T15:58:24;9.73;;;6.25;;
24102;SDS011;12278;53.058;9.028;2024-01-30T16:02:25;10.90;;;6.55;;
24102;SDS011;12278;53.058;9.028;2024-01-30T16:06:27;9.85;;;5.68;;
24102;SDS011;12278;53.058;9.028;2024-01-30T16:10:28;10.00;;;6.45;;
24102;SDS011;12278;53.058;9.028;2024-01-30T16:14:29;6.03;;;5.13;;
24102;SDS011;12278;53.058;9.028;2024-01-30T16:18:29;9.52;;;6.28;;
24102;SDS011;12278;53.058;9.028;2024-01-30T16:22:32;10.43;;;6.10;;
24102;SDS011;12278;53.058;9.028;2024-01-30T16:26:32;8.70;;;5.68;;
24102;SDS011;12278;53.058;9.028;2024-01-30T16:30:33;6.45;;;5.75;;
24102;SDS011;12278;53.058;9.028;2024-01-30T16:34:33;7.45;;;5.72;;
24102;SDS011;12278;53.058;9.028;2024-01-30T16:38:34;7.32;;;5.40;;
24102;SDS011;12278;53.058;9.028;2024-01-30T16:42:34;6.10;;;5.22;;
24102;SDS011;12278;53.058;9.028;2024-01-30T16:46:35;10.20;;;5.85;;
24102;SDS011;12278;53.058;9.028;2024-01-30T16:50:37;7.88;;;5.60;;
24102;SDS011;12278;53.058;9.028;2024-01-30T16:54:38;8.63;;;5.63;;
24102;SDS011;12278;53.058;9.028;2024-01-30T16:58:39;7.15;;;5.95;;
24102;SDS011;12278;53.058;9.028;2024-01-30T17:02:39;11.05;;;6.50;;
24102;SDS011;12278;53.058;9.028;2024-01-30T17:06:40;7.72;;;6.38;;
24102;SDS011;12278;53.058;9.028;2024-01-30T17:10:41;7.13;;;6.30;;
24102;SDS011;12278;53.058;9.028;2024-01-30T17:14:41;8.70;;;6.43;;
24102;SDS011;12278;53.058;9.028;2024-01-30T17:18:42;8.77;;;7.50;;
24102;SDS011;12278;53.058;9.028;2024-01-30T17:22:43;6.45;;;5.82;;
24102;SDS011;12278;53.058;9.028;2024-01-30T17:26:43;7.95;;;6.43;;
24102;SDS011;12278;53.058;9.028;2024-01-30T17:30:44;6.95;;;6.13;;
24102;SDS011;12278;53.058;9.028;2024-01-30T17:34:44;9.07;;;5.70;;
24102;SDS011;12278;53.058;9.028;2024-01-30T17:38:45;5.45;;;4.95;;
24102;SDS011;12278;53.058;9.028;2024-01-30T17:42:47;6.00;;;3.90;;
24102;SDS011;12278;53.058;9.028;2024-01-30T17:46:48;7.53;;;4.00;;
24102;SDS011;12278;53.058;9.028;2024-01-30T17:50:50;3.85;;;3.45;;
24102;SDS011;12278;53.058;9.028;2024-01-30T17:54:51;4.30;;;3.20;;
24102;SDS011;12278;53.058;9.028;2024-01-30T17:58:51;5.80;;;3.08;;
24102;SDS011;12278;53.058;9.028;2024-01-30T18:02:52;5.05;;;2.53;;
24102;SDS011;12278;53.058;9.028;2024-01-30T18:06:55;3.08;;;2.28;;
24102;SDS011;12278;53.058;9.028;2024-01-30T18:10:56;2.25;;;2.05;;
24102;SDS011;12278;53.058;9.028;2024-01-30T18:14:57;3.60;;;2.40;;
24102;SDS011;12278;53.058;9.028;2024-01-30T18:18:57;2.28;;;2.00;;
24102;SDS011;12278;53.058;9.028;2024-01-30T18:22:58;2.40;;;2.07;;
24102;SDS011;12278;53.058;9.028;2024-01-30T18:26:58;4.80;;;1.85;;
24102;SDS011;12278;53.058;9.028;2024-01-30T18:30:59;4.43;;;1.83;;
24102;SDS011;12278;53.058;9.028;2024-01-30T18:35:00;1.75;;;1.40;;
24102;SDS011;12278;53.058;9.028;2024-01-30T18:39:01;2.17;;;1.97;;
24102;SDS011;12278;53.058;9.028;2024-01-30T18:43:01;3.65;;;3.00;;
24102;SDS011;12278;53.058;9.028;2024-01-30T18:51:05;3.15;;;2.67;;
24102;SDS011;12278;53.058;9.028;2024-01-30T18:55:06;4.22;;;2.85;;
24102;SDS011;12278;53.058;9.028;2024-01-30T18:59:07;3.60;;;2.83;;
24102;SDS011;12278;53.058;9.028;2024-01-30T19:03:07;3.95;;;2.95;;
24102;SDS011;12278;53.058;9.028;2024-01-30T19:07:08;2.83;;;2.22;;
24102;SDS011;12278;53.058;9.028;2024-01-30T19:11:18;6.40;;;3.00;;
24102;SDS011;12278;53.058;9.028;2024-01-30T19:15:19;4.72;;;2.83;;
24102;SDS011;12278;53.058;9.028;2024-01-30T19:19:20;3.33;;;2.90;;
24102;SDS011;12278;53.058;9.028;2024-01-30T19:23:21;4.18;;;3.72;;
24102;SDS011;12278;53.058;9.028;2024-01-30T19:27:22;3.92;;;3.10;;
24102;SDS011;12278;53.058;9.028;2024-01-30T19:31:23;6.03;;;3.38;;
24102;SDS011;12278;53.058;9.028;2024-01-30T19:35:24;3.58;;;2.63;;
24102;SDS011;12278;53.058;9.028;2024-01-30T19:39:25;4.15;;;3.45;;
24102;SDS011;12278;53.058;9.028;2024-01-30T19:43:27;3.22;;;2.80;;
24102;SDS011;12278;53.058;9.028;2024-01-30T19:47:28;4.97;;;3.38;;
24102;SDS011;12278;53.058;9.028;2024-01-30T19:51:29;16.10;;;10.13;;
24102;SDS011;12278;53.058;9.028;2024-01-30T19:55:29;4.45;;;3.60;;
24102;SDS011;12278;53.058;9.028;2024-01-30T19:59:32;4.28;;;3.22;;
24102;SDS011;12278;53.058;9.028;2024-01-30T20:03:36;7.18;;;5.57;;
24102;SDS011;12278;53.058;9.028;2024-01-30T20:07:37;6.65;;;5.32;;
24102;SDS011;12278;53.058;9.028;2024-01-30T20:11:37;8.57;;;5.75;;
24102;SDS011;12278;53.058;9.028;2024-01-30T20:15:38;5.68;;;4.68;;
24102;SDS011;12278;53.058;9.028;2024-01-30T20:19:39;5.82;;;4.53;;
24102;SDS011;12278;53.058;9.028;2024-01-30T20:23:43;5.78;;;4.85;;
24102;SDS011;12278;53.058;9.028;2024-01-30T20:27:45;7.75;;;6.20;;
24102;SDS011;12278;53.058;9.028;2024-01-30T20:31:46;8.55;;;6.05;;
24102;SDS011;12278;53.058;9.028;2024-01-30T20:35:47;5.85;;;5.25;;
24102;SDS011;12278;53.058;9.028;2024-01-30T20:59:51;5.93;;;5.32;;
24102;SDS011;12278;53.058;9.028;2024-01-30T21:03:52;6.60;;;5.43;;
24102;SDS011;12278;53.058;9.028;2024-01-30T21:07:53;5.85;;;4.75;;
24102;SDS011;12278;53.058;9.028;2024-01-30T21:11:54;6.85;;;4.70;;
24102;SDS011;12278;53.058;9.028;2024-01-30T21:15:55;5.47;;;4.87;;
